Time;durP1;ratioP1;P1;durP2;ratioP2;P2;SDS_P1;SDS_P2;PMS_P1;PMS_P2;Temp;Humidity;BMP_temperature;BMP_pressure;BME280_temperature;BME280_humidity;BME280_pressure;Samples;Min_cycle;Max_cycle;Signal;HPM_P1;HPM_P2
2022/05/06 00:00:52;;;;;;;4.30;2.30;;;;;;;21.48;48.11;101025.28;5100881;28;20068;-59
2022/05/06 00:03:17;;;;;;;2.42;2.22;;;;;;;21.47;47.83;101021.00;5094809;28;20110;-62
2022/05/06 00:05:43;;;;;;;2.70;2.50;;;;;;;21.47;47.88;101018.34;5060050;28;20387;-62
2022/05/06 00:08:10;;;;;;;2.33;2.13;;;;;;;21.48;48.03;101025.28;5091363;28;20020;-61
2022/05/06 00:10:36;;;;;;;3.35;2.58;;;;;;;21.48;47.93;101016.50;5093648;28;20038;-61
2022/05/06 00:13:01;;;;;;;1.98;1.83;;;;;;;21.48;47.95;101014.66;5085524;28;20048;-59
2022/05/06 00:15:27;;;;;;;2.88;2.65;;;;;;;21.48;47.90;101014.66;5082695;28;20473;-62
2022/05/06 00:17:52;;;;;;;3.58;2.38;;;;;;;21.48;47.70;101012.03;5083665;28;20460;-62
2022/05/06 00:20:18;;;;;;;2.35;2.00;;;;;;;21.48;47.99;101009.38;5082451;28;20033;-61
2022/05/06 00:22:44;;;;;;;2.42;1.88;;;;;;;21.48;48.19;101006.72;5064005;28;20516;-60
2022/05/06 00:25:09;;;;;;;2.35;2.15;;;;;;;21.49;48.12;101011.00;5085439;28;20435;-61
2022/05/06 00:27:39;;;;;;;2.20;2.00;;;;;;;21.49;48.14;101004.88;5084307;28;20033;-59
2022/05/06 00:30:05;;;;;;;2.47;2.28;;;;;;;21.47;48.06;100999.78;5066215;28;20031;-61
2022/05/06 00:32:30;;;;;;;2.35;1.98;;;;;;;21.49;47.98;100991.63;5084919;28;20094;-61
2022/05/06 00:34:55;;;;;;;2.67;2.47;;;;;;;21.47;48.14;100997.13;5086096;28;20122;-60
2022/05/06 00:37:21;;;;;;;3.15;2.70;;;;;;;21.48;48.10;100996.13;5081273;28;20339;-63
2022/05/06 00:39:46;;;;;;;3.38;2.17;;;;;;;21.47;48.12;100991.00;5081922;28;20036;-58
2022/05/06 00:42:12;;;;;;;2.28;2.08;;;;;;;21.47;47.94;100996.31;5078872;28;20036;-62
2022/05/06 00:44:37;;;;;;;3.25;1.98;;;;;;;21.46;48.08;100990.19;5083408;28;20033;-62
2022/05/06 00:47:04;;;;;;;2.25;2.05;;;;;;;21.45;48.02;100991.22;5089531;28;20028;-60
2022/05/06 00:49:29;;;;;;;2.40;2.20;;;;;;;21.45;47.80;100988.56;5080601;28;20036;-62
2022/05/06 00:51:56;;;;;;;1.90;1.80;;;;;;;21.44;48.33;100980.81;5089750;28;20090;-61
2022/05/06 00:54:23;;;;;;;2.60;2.22;;;;;;;21.43;47.94;100990.59;5066201;28;20028;-62
2022/05/06 00:56:50;;;;;;;2.10;2.00;;;;;;;21.42;48.01;100986.31;5087497;28;20032;-60
2022/05/06 00:59:15;;;;;;;2.42;2.22;;;;;;;21.43;48.22;100984.47;5081784;28;20040;-59
2022/05/06 01:01:41;;;;;;;2.80;2.60;;;;;;;21.41;48.29;100987.34;5101151;28;20050;-59
2022/05/06 01:04:06;;;;;;;5.70;1.90;;;;;;;21.42;48.26;100988.16;5087183;28;20119;-60
2022/05/06 01:06:33;;;;;;;2.45;2.03;;;;;;;21.41;48.21;100982.03;5088115;28;20452;-61
2022/05/06 01:08:59;;;;;;;3.05;2.08;;;;;;;21.40;47.91;100982.25;5090748;28;20028;-60
2022/05/06 01:11:26;;;;;;;1.90;1.77;;;;;;;21.40;48.25;100983.06;5087549;28;20034;-62
2022/05/06 01:13:55;;;;;;;2.42;1.92;;;;;;;21.39;48.06;100984.06;5079950;28;20508;-62
2022/05/06 01:16:21;;;;;;;1.88;1.77;;;;;;;21.39;48.11;100989.38;5088536;28;20024;-60
2022/05/06 01:18:47;;;;;;;2.70;1.60;;;;;;;21.39;48.34;100988.56;5089634;28;20027;-62
2022/05/06 01:21:24;;;;;;;2.83;2.40;;;;;;;21.37;48.23;100991.41;5088954;28;20378;-59
2022/05/06 01:23:49;;;;;;;2.08;1.88;;;;;;;21.37;48.24;100990.59;5082494;28;20028;-61
2022/05/06 01:26:14;;;;;;;2.17;1.98;;;;;;;21.37;48.11;100988.75;5091959;28;20548;-60
2022/05/06 01:28:42;;;;;;;2.22;2.03;;;;;;;21.36;48.17;100995.06;5087017;28;20035;-60
2022/05/06 01:31:08;;;;;;;1.95;1.65;;;;;;;21.39;47.99;101001.81;5087356;28;20123;-62
2022/05/06 01:33:36;;;;;;;1.77;1.67;;;;;;;21.39;48.06;100994.69;5091256;28;20028;-59
2022/05/06 01:36:04;;;;;;;2.20;2.00;;;;;;;21.38;48.29;100993.03;5097099;28;20028;-60
2022/05/06 01:38:50;;;;;;;2.05;1.95;;;;;;;21.38;47.96;100998.34;5068383;28;20096;-61
2022/05/06 01:41:25;;;;;;;3.25;1.73;;;;;;;21.35;48.02;100990.78;5087597;28;20040;-60
2022/05/06 01:43:55;;;;;;;2.95;1.95;;;;;;;21.38;48.23;100987.75;5082124;28;20036;-62
2022/05/06 01:46:25;;;;;;;2.45;2.25;;;;;;;21.38;48.06;100986.94;5085454;28;20028;-61
2022/05/06 01:48:51;;;;;;;2.17;1.70;;;;;;;21.39;48.31;100993.84;5091680;28;20023;-62
2022/05/06 01:51:17;;;;;;;2.25;1.73;;;;;;;21.39;48.03;100994.69;5086826;28;20040;-60
2022/05/06 01:53:44;;;;;;;2.00;1.70;;;;;;;21.39;48.08;100993.84;5085417;28;20028;-58
2022/05/06 01:56:10;;;;;;;2.22;2.03;;;;;;;21.39;48.25;100989.38;5085992;28;20062;-59
2022/05/06 01:58:36;;;;;;;2.35;2.10;;;;;;;21.39;48.23;100989.38;5091615;28;20476;-59
2022/05/06 02:01:02;;;;;;;2.30;2.08;;;;;;;21.40;48.28;100991.00;5074874;28;20036;-60
2022/05/06 02:06:20;;;;;;;2.17;1.98;;;;;;;21.39;48.03;100981.44;5048914;28;20340;-60
2022/05/06 02:08:45;;;;;;;2.38;2.00;;;;;;;21.39;48.29;100984.06;5091076;28;20027;-59
2022/05/06 02:11:11;;;;;;;2.50;2.03;;;;;;;21.40;48.26;100988.34;5475040;22;20015;-72
2022/05/06 02:13:37;;;;;;;2.30;2.10;;;;;;;21.40;48.16;100993.66;4965814;22;20082;-47
2022/05/06 02:16:03;;;;;;;2.33;1.85;;;;;;;21.40;48.40;100985.72;5067305;28;20042;-51
2022/05/06 02:18:29;;;;;;;2.85;1.42;;;;;;;21.40;48.25;100983.06;5061720;28;20257;-51
2022/05/06 02:20:56;;;;;;;1.88;1.65;;;;;;;21.40;48.04;100984.88;5047307;28;20154;-48
2022/05/06 02:23:22;;;;;;;1.92;1.83;;;;;;;21.39;48.33;100997.31;5047222;28;20028;-49
2022/05/06 02:25:48;;;;;;;1.60;1.40;;;;;;;21.38;48.05;100987.75;5047585;28;20027;-49
2022/05/06 02:28:14;;;;;;;1.70;1.58;;;;;;;21.39;48.30;100988.56;5047322;28;20062;-48
2022/05/06 02:33:25;;;;;;;2.90;2.08;;;;;;;21.36;47.99;100984.47;5047743;28;20139;-51
2022/05/06 02:35:54;;;;;;;2.30;2.10;;;;;;;21.36;48.17;100984.47;5047420;28;20025;-49
2022/05/06 02:38:21;;;;;;;1.88;1.77;;;;;;;21.37;47.89;100980.00;5047241;28;20213;-47
2022/05/06 02:40:48;;;;;;;1.60;1.30;;;;;;;21.35;48.43;100974.91;5047058;28;20552;-49
2022/05/06 02:43:13;;;;;;;2.38;1.52;;;;;;;21.37;48.28;100983.47;5046819;28;20055;-48
2022/05/06 02:45:39;;;;;;;1.42;1.05;;;;;;;21.38;48.19;100978.97;5046987;28;20338;-49
2022/05/06 02:48:05;;;;;;;1.50;1.17;;;;;;;21.38;48.33;100976.31;5046821;28;20162;-50
2022/05/06 02:50:31;;;;;;;1.50;1.40;;;;;;;21.36;48.31;100984.47;5047103;28;20028;-49
2022/05/06 02:52:56;;;;;;;2.00;1.70;;;;;;;21.37;48.12;100978.16;5047001;28;20070;-46
2022/05/06 02:55:23;;;;;;;1.88;1.63;;;;;;;21.36;48.37;100979.19;5045670;28;20070;-50
2022/05/06 02:57:50;;;;;;;3.28;1.50;;;;;;;21.37;48.07;100982.63;5026750;28;20057;-49
2022/05/06 03:00:16;;;;;;;2.47;1.77;;;;;;;21.35;48.42;100977.53;5027090;28;20084;-49
2022/05/06 03:02:41;;;;;;;1.95;1.85;;;;;;;21.34;48.20;100973.25;5026999;28;20029;-49
2022/05/06 03:05:08;;;;;;;1.50;1.40;;;;;;;21.34;48.29;100973.25;5027023;28;20055;-48
2022/05/06 03:07:33;;;;;;;2.08;1.60;;;;;;;21.33;48.60;100974.28;5026341;28;20053;-47
2022/05/06 03:09:59;;;;;;;2.35;2.15;;;;;;;21.33;48.40;100971.63;5026805;28;20061;-50
2022/05/06 03:12:29;;;;;;;2.65;1.88;;;;;;;21.31;48.54;100970.19;5026379;28;20100;-47
2022/05/06 03:14:54;;;;;;;2.38;1.50;;;;;;;21.31;48.54;100970.19;5026639;28;20554;-49
2022/05/06 03:17:20;;;;;;;2.70;1.50;;;;;;;21.30;48.74;100969.38;5026489;28;20056;-48
2022/05/06 03:19:45;;;;;;;1.83;1.70;;;;;;;21.30;48.71;100969.38;5026495;28;20357;-47
2022/05/06 03:22:12;;;;;;;3.25;2.30;;;;;;;21.30;48.21;100966.72;5026459;28;20427;-47
2022/05/06 03:24:38;;;;;;;4.28;2.10;;;;;;;21.30;49.08;100969.38;5026643;28;20473;-47
2022/05/06 03:27:04;;;;;;;2.70;1.73;;;;;;;21.30;48.94;100969.38;5034324;28;20123;-48
2022/05/06 03:29:30;;;;;;;3.47;1.98;;;;;;;21.30;49.20;100957.97;5044401;28;20025;-47
2022/05/06 03:31:56;;;;;;;7.10;1.95;;;;;;;21.29;49.28;100962.44;5045456;28;20056;-47
2022/05/06 03:34:22;;;;;;;4.45;1.65;;;;;;;21.30;49.35;100968.56;5046938;28;20140;-46
2022/05/06 03:36:48;;;;;;;4.22;1.35;;;;;;;21.28;48.87;100965.31;5049466;28;20123;-48
2022/05/06 03:39:13;;;;;;;2.00;1.80;;;;;;;21.28;49.14;100968.75;5064686;28;20043;-46
2022/05/06 03:41:39;;;;;;;2.38;1.67;;;;;;;21.27;48.67;100964.47;5065421;28;20032;-46
2022/05/06 03:44:06;;;;;;;1.70;1.60;;;;;;;21.28;48.73;100966.13;5051483;28;20036;-48
2022/05/06 03:46:33;;;;;;;2.28;1.50;;;;;;;21.30;48.80;100966.72;5042994;28;20519;-47
2022/05/06 03:49:01;;;;;;;3.00;1.88;;;;;;;21.30;48.59;100966.72;5048216;28;20028;-45
2022/05/06 03:51:28;;;;;;;1.85;1.58;;;;;;;21.30;48.56;100958.78;5043622;28;20069;-47
2022/05/06 03:53:57;;;;;;;1.40;1.25;;;;;;;21.31;48.63;100965.72;5060309;28;20054;-46
2022/05/06 03:56:24;;;;;;;2.55;1.80;;;;;;;21.33;48.48;100965.50;5043414;28;20067;-46
2022/05/06 03:58:53;;;;;;;1.63;1.38;;;;;;;21.33;48.50;100961.03;5060765;28;20145;-46
2022/05/06 04:01:20;;;;;;;1.98;1.23;;;;;;;21.34;48.55;100964.50;5053861;28;20028;-46
2022/05/06 04:03:50;;;;;;;1.63;1.52;;;;;;;21.36;48.76;100962.47;5055787;28;20434;-48
2022/05/06 04:06:16;;;;;;;4.32;1.77;;;;;;;21.35;48.66;100964.28;5039987;28;20033;-47
2022/05/06 04:08:42;;;;;;;2.05;1.52;;;;;;;21.34;48.41;100960.00;5050005;28;20131;-47
2022/05/06 04:11:12;;;;;;;1.58;1.25;;;;;;;21.35;48.43;100966.13;5043812;28;20423;-46
2022/05/06 04:13:38;;;;;;;3.42;1.95;;;;;;;21.34;48.68;100965.31;5061710;28;20311;-47
2022/05/06 04:16:04;;;;;;;3.42;1.92;;;;;;;21.33;48.62;100968.97;5046446;28;20210;-46
2022/05/06 04:18:31;;;;;;;1.92;1.50;;;;;;;21.35;48.74;100963.47;5047570;28;20435;-48
2022/05/06 04:23:40;;;;;;;2.55;1.90;;;;;;;21.31;48.35;100971.00;5054224;28;20408;-50
2022/05/06 04:26:07;;;;;;;1.83;1.33;;;;;;;21.30;48.52;100969.38;5051263;28;20028;-52
2022/05/06 04:28:34;;;;;;;2.60;1.85;;;;;;;21.29;48.52;100978.34;5055066;28;20111;-46
2022/05/06 04:31:00;;;;;;;1.45;1.35;;;;;;;21.31;48.55;100980.81;5062952;28;20060;-47
2022/05/06 04:33:27;;;;;;;2.05;1.55;;;;;;;21.29;48.79;100978.34;5053361;28;20111;-50
2022/05/06 04:35:57;;;;;;;1.38;1.08;;;;;;;21.28;48.43;100975.91;5040804;28;20106;-46
2022/05/06 04:38:23;;;;;;;2.17;1.40;;;;;;;21.28;48.69;100981.19;5049570;28;20142;-49
2022/05/06 04:40:50;;;;;;;1.67;1.38;;;;;;;21.28;48.83;100981.19;5038977;28;20021;-51
2022/05/06 04:43:21;;;;;;;2.20;1.55;;;;;;;21.26;48.61;100984.09;5039030;28;20035;-46
2022/05/06 04:45:47;;;;;;;1.60;1.38;;;;;;;21.27;48.75;100987.53;5042504;28;20063;-47
2022/05/06 04:48:13;;;;;;;1.65;1.52;;;;;;;21.26;48.69;100989.38;5042570;28;20318;-50
2022/05/06 04:50:40;;;;;;;2.78;1.58;;;;;;;21.27;48.59;100985.69;5048156;28;20033;-52
2022/05/06 04:53:08;;;;;;;1.90;1.52;;;;;;;21.27;48.49;100996.28;5046641;28;20108;-47
2022/05/06 04:55:38;;;;;;;1.45;1.17;;;;;;;21.27;48.83;100990.97;5044064;28;20037;-51
2022/05/06 04:58:05;;;;;;;1.88;1.48;;;;;;;21.27;48.58;100990.97;5043357;28;20456;-49
2022/05/06 05:00:31;;;;;;;1.55;1.35;;;;;;;21.27;48.74;100988.34;5043911;28;20518;-49
2022/05/06 05:02:57;;;;;;;1.88;1.30;;;;;;;21.27;48.58;101000.81;5038466;28;20026;-47
2022/05/06 05:05:24;;;;;;;2.92;1.50;;;;;;;21.26;48.67;100994.69;5051288;28;20582;-48
2022/05/06 05:07:49;;;;;;;1.48;1.33;;;;;;;21.27;48.93;100998.94;5047412;28;20127;-47
2022/05/06 05:10:15;;;;;;;1.50;1.35;;;;;;;21.26;49.07;100997.34;5057490;28;20832;-46
2022/05/06 05:12:41;;;;;;;1.42;1.17;;;;;;;21.25;48.85;100995.69;5049519;28;20048;-47
2022/05/06 05:15:06;;;;;;;1.85;1.63;;;;;;;21.26;48.70;100994.69;5046002;28;20044;-46
2022/05/06 05:17:32;;;;;;;2.45;1.60;;;;;;;21.25;48.70;100993.06;5068209;28;20039;-50
2022/05/06 05:19:57;;;;;;;2.65;1.58;;;;;;;21.25;48.68;100993.06;5067643;28;20438;-52
2022/05/06 05:22:23;;;;;;;2.03;1.30;;;;;;;21.24;49.06;100993.25;5063108;28;20058;-48
2022/05/06 05:24:48;;;;;;;1.77;1.63;;;;;;;21.24;49.03;100980.00;5054765;28;20721;-49
2022/05/06 05:27:15;;;;;;;2.80;1.63;;;;;;;21.23;48.87;100984.47;5043661;28;20033;-53
2022/05/06 05:29:42;;;;;;;2.28;2.08;;;;;;;21.23;49.14;100983.66;5050403;28;20092;-50
2022/05/06 05:32:08;;;;;;;2.47;1.42;;;;;;;21.22;48.95;100982.84;5046120;28;20107;-49
2022/05/06 05:34:34;;;;;;;2.20;1.55;;;;;;;21.22;48.95;100990.81;5047227;28;20037;-50
2022/05/06 05:36:59;;;;;;;1.50;1.33;;;;;;;21.20;48.81;100988.31;5049201;28;20032;-47
2022/05/06 05:39:25;;;;;;;1.40;1.17;;;;;;;21.20;48.73;100984.84;5063116;28;20048;-49
2022/05/06 05:41:50;;;;;;;1.73;1.08;;;;;;;21.22;48.91;100987.34;5047370;28;20040;-48
2022/05/06 05:49:44;;;;;;;2.05;1.30;;;;;;;21.22;48.99;100984.69;5066587;28;20071;-46
2022/05/06 05:52:10;;;;;;;2.35;1.55;;;;;;;21.23;48.83;100983.66;5050514;28;20555;-46
2022/05/06 05:54:36;;;;;;;3.15;1.75;;;;;;;21.23;48.93;100976.53;5049268;28;20040;-47
2022/05/06 05:57:03;;;;;;;1.63;1.30;;;;;;;21.24;49.01;100978.16;5034739;28;20025;-52
2022/05/06 05:59:28;;;;;;;1.58;1.48;;;;;;;21.25;49.05;100982.44;5048121;28;20032;-50
2022/05/06 06:01:54;;;;;;;1.23;1.13;;;;;;;21.25;49.27;100971.84;5042449;28;20029;-51
2022/05/06 06:04:20;;;;;;;1.90;1.30;;;;;;;21.27;49.06;100974.31;5066050;28;20032;-50
2022/05/06 06:06:45;;;;;;;1.55;1.45;;;;;;;21.27;48.97;100977.72;5042672;28;20032;-49
2022/05/06 06:09:11;;;;;;;1.75;1.15;;;;;;;21.28;49.03;100978.56;5046240;28;20051;-49
2022/05/06 06:11:36;;;;;;;1.40;1.30;;;;;;;21.28;48.72;100973.25;5055495;28;20029;-52
2022/05/06 06:14:02;;;;;;;1.58;1.23;;;;;;;21.29;48.84;100977.53;5064832;28;20035;-50
2022/05/06 06:16:28;;;;;;;1.88;1.55;;;;;;;21.28;48.74;100978.56;5057365;28;20055;-50
2022/05/06 06:18:58;;;;;;;1.58;1.17;;;;;;;21.28;48.84;100974.06;5047492;28;20078;-46
2022/05/06 06:21:24;;;;;;;1.63;1.38;;;;;;;21.26;48.89;100981.44;5049762;28;20068;-48
2022/05/06 06:23:49;;;;;;;2.25;1.85;;;;;;;21.26;48.90;100981.44;5044581;28;20067;-48
2022/05/06 06:26:14;;;;;;;1.77;1.58;;;;;;;21.26;49.20;100981.44;5045936;28;20123;-51
2022/05/06 06:28:40;;;;;;;3.42;1.10;;;;;;;21.24;48.92;100975.53;5045895;28;20032;-48
2022/05/06 06:31:05;;;;;;;1.48;1.10;;;;;;;21.24;49.15;100980.81;5046309;28;20109;-52
2022/05/06 06:33:32;;;;;;;2.25;1.50;;;;;;;21.24;48.95;100977.34;5047761;28;20470;-52
2022/05/06 06:35:57;;;;;;;1.60;1.50;;;;;;;21.23;48.86;100978.38;5054532;28;20452;-51
2022/05/06 06:38:24;;;;;;;1.73;1.38;;;;;;;21.22;48.92;100980.19;5045338;28;20340;-51
2022/05/06 06:40:50;;;;;;;1.98;1.42;;;;;;;21.22;49.18;100977.56;5044971;28;20040;-49
2022/05/06 06:43:15;;;;;;;1.67;1.38;;;;;;;21.21;49.17;100975.91;5040907;28;20032;-52
2022/05/06 06:45:40;;;;;;;1.83;1.67;;;;;;;21.21;49.35;100975.91;5043460;28;20024;-49
2022/05/06 06:48:06;;;;;;;1.98;1.40;;;;;;;21.19;49.21;100976.09;5048486;28;20052;-52
2022/05/06 06:50:31;;;;;;;3.60;1.50;;;;;;;21.19;49.46;100975.28;5046034;28;20385;-50
2022/05/06 06:52:57;;;;;;;3.70;1.83;;;;;;;21.18;49.55;100979.75;5046026;28;20021;-52
2022/05/06 06:55:22;;;;;;;2.33;1.42;;;;;;;21.18;49.18;100979.75;5046326;28;20443;-50
2022/05/06 06:57:49;;;;;;;2.97;1.67;;;;;;;21.18;49.52;100978.94;5059330;28;20033;-49
2022/05/06 07:00:14;;;;;;;3.05;1.23;;;;;;;21.18;49.40;100978.94;5061467;28;20110;-48
2022/05/06 07:02:40;;;;;;;1.98;1.52;;;;;;;21.19;49.57;100985.88;5028667;28;20053;-47
2022/05/06 07:05:06;;;;;;;2.08;1.20;;;;;;;21.18;49.26;100981.59;5036627;28;20449;-49
2022/05/06 07:12:59;;;;;;;2.67;1.23;;;;;;;21.18;49.51;100973.63;5052518;28;20113;-48
2022/05/06 07:15:27;;;;;;;1.40;1.00;;;;;;;21.18;49.46;100979.75;5039237;28;20028;-48
2022/05/06 07:17:52;;;;;;;1.83;1.40;;;;;;;21.18;49.25;100971.81;5042795;28;20017;-47
2022/05/06 07:20:18;;;;;;;1.38;1.13;;;;;;;21.19;49.57;100973.44;5054560;28;20145;-48
2022/05/06 07:22:43;;;;;;;1.77;1.60;;;;;;;21.19;49.42;100977.91;5043921;28;20028;-46
2022/05/06 07:25:09;;;;;;;2.10;1.15;;;;;;;21.19;49.49;100980.56;5041685;28;20566;-48
2022/05/06 07:27:35;;;;;;;1.77;1.15;;;;;;;21.18;49.35;100971.00;5038571;28;20294;-50
2022/05/06 07:30:03;;;;;;;1.80;1.65;;;;;;;21.18;49.46;100985.06;5032156;28;20017;-47
2022/05/06 07:32:30;;;;;;;2.08;1.48;;;;;;;21.19;49.18;100972.63;5063624;28;20035;-53
2022/05/06 07:34:56;;;;;;;1.27;1.08;;;;;;;21.17;49.38;100974.66;5057111;28;20036;-47
2022/05/06 07:37:21;;;;;;;6.43;2.00;;;;;;;21.20;50.49;100979.56;5031193;28;20408;-50
2022/05/06 07:39:46;;;;;;;3.63;2.45;;;;;;;21.30;51.50;100974.69;5036717;28;20025;-48
2022/05/06 07:42:12;;;;;;;12.15;3.47;;;;;;;21.39;52.01;100968.16;5035373;28;20040;-51
2022/05/06 07:44:38;;;;;;;3.95;3.55;;;;;;;21.43;52.13;100969.41;5047629;22;20044;-49
2022/05/06 07:47:03;;;;;;;12.85;5.68;;;;;;;21.44;52.24;100962.25;5081338;28;20153;-52
2022/05/06 07:49:29;;;;;;;7.03;4.47;;;;;;;21.42;52.33;100969.59;5080069;28;20090;-49
2022/05/06 07:51:54;;;;;;;10.05;3.78;;;;;;;21.41;52.11;100970.63;5075809;28;20062;-62
2022/05/06 07:54:20;;;;;;;4.22;3.03;;;;;;;21.37;52.11;100975.50;5086331;28;20113;-48
2022/05/06 07:56:45;;;;;;;3.40;2.75;;;;;;;21.37;52.16;100967.56;5085061;28;20024;-48
2022/05/06 07:59:11;;;;;;;5.43;1.70;;;;;;;21.37;52.01;100964.91;5086827;28;20177;-46
2022/05/06 08:04:34;;;;;;;2.72;1.40;;;;;;;21.36;51.88;100963.28;5088783;28;20121;-50
2022/05/06 08:07:00;;;;;;;5.65;1.95;;;;;;;21.37;52.42;100967.56;5084059;28;20047;-49
2022/05/06 08:09:26;;;;;;;6.32;2.13;;;;;;;21.36;52.64;100963.28;5077762;28;20059;-47
2022/05/06 08:11:52;;;;;;;6.60;2.28;;;;;;;21.38;53.15;100958.59;5084499;28;20032;-48
2022/05/06 08:14:18;;;;;;;10.20;2.17;;;;;;;21.40;53.62;100959.19;5087120;28;20093;-53
2022/05/06 08:16:45;;;;;;;5.25;2.05;;;;;;;21.41;53.26;100955.53;5082487;28;20518;-53
2022/05/06 08:19:11;;;;;;;8.40;2.28;;;;;;;21.42;53.74;100953.69;5083835;28;20169;-46
2022/05/06 08:21:36;;;;;;;5.57;2.88;;;;;;;21.40;53.46;100953.09;5084571;28;20058;-50
2022/05/06 08:24:03;;;;;;;9.25;2.88;;;;;;;21.38;53.04;100949.81;5085233;28;20103;-51
2022/05/06 08:26:28;;;;;;;7.13;3.28;;;;;;;21.36;53.17;100965.91;5085582;28;20035;-52
2022/05/06 08:28:54;;;;;;;3.60;3.03;;;;;;;21.35;53.02;100961.63;5085064;28;20024;-52
2022/05/06 08:31:20;;;;;;;3.03;2.28;;;;;;;21.35;53.03;100961.63;5089328;28;20034;-48
2022/05/06 08:33:46;;;;;;;7.65;3.42;;;;;;;21.36;53.26;100963.28;5088315;28;20043;-48
2022/05/06 08:36:11;;;;;;;3.72;2.22;;;;;;;21.36;53.51;100962.47;5080347;28;20402;-46
2022/05/06 08:38:36;;;;;;;6.93;3.13;;;;;;;21.33;53.74;100963.69;5080972;28;20028;-48
2022/05/06 08:41:02;;;;;;;4.78;2.70;;;;;;;21.33;53.90;100957.56;5085647;28;20465;-46
2022/05/06 08:43:28;;;;;;;4.25;2.70;;;;;;;21.32;54.37;100962.03;5089308;28;20028;-47
2022/05/06 08:51:31;;;;;;;3.90;2.50;;;;;;;21.26;53.57;100968.19;5087044;28;20070;-48
2022/05/06 08:53:57;;;;;;;4.03;2.40;;;;;;;21.27;53.83;100977.72;5087266;28;20304;-49
2022/05/06 08:56:23;;;;;;;2.75;2.20;;;;;;;21.28;53.82;100982.00;5079030;28;20039;-50
2022/05/06 08:58:49;;;;;;;2.78;2.08;;;;;;;21.26;54.07;100986.72;5082394;28;20043;-47
2022/05/06 09:01:16;;;;;;;8.13;2.83;;;;;;;21.26;54.62;100977.97;5088500;28;20450;-48
2022/05/06 09:03:48;;;;;;;6.28;2.75;;;;;;;21.26;54.90;100984.09;5082383;28;20032;-50
2022/05/06 09:06:18;;;;;;;2.92;2.28;;;;;;;21.26;55.49;100997.34;5088288;28;20577;-47
2022/05/06 09:08:44;;;;;;;3.15;2.85;;;;;;;21.25;55.85;100995.69;5085831;28;20028;-48
2022/05/06 09:11:10;;;;;;;5.35;3.00;;;;;;;21.26;56.05;100999.16;5086269;28;20051;-51
2022/05/06 09:13:37;;;;;;;3.17;2.85;;;;;;;21.25;56.45;100997.53;5087879;28;20028;-51
2022/05/06 09:19:22;;;;;;;2.80;2.47;;;;;;;21.19;57.11;101004.41;5084960;28;20514;-49
2022/05/06 09:22:04;;;;;;;3.58;2.35;;;;;;;21.18;56.77;101000.94;5087667;28;20034;-47
2022/05/06 09:24:31;;;;;;;3.97;2.70;;;;;;;21.20;56.36;101001.56;5087093;28;20067;-49
2022/05/06 09:26:57;;;;;;;2.72;2.42;;;;;;;21.20;55.87;100995.44;5086810;28;20035;-52
2022/05/06 09:29:41;;;;;;;2.88;2.03;;;;;;;21.19;56.14;101001.78;5086474;28;20028;-51
2022/05/06 09:32:22;;;;;;;4.03;2.10;;;;;;;21.19;55.48;100999.13;5068456;28;20036;-49
2022/05/06 09:34:48;;;;;;;2.47;1.73;;;;;;;21.20;55.65;100998.09;5072684;28;20024;-55
2022/05/06 09:37:40;;;;;;;5.15;2.10;;;;;;;21.18;55.71;100998.31;5087584;28;20032;-59
2022/05/06 09:40:14;;;;;;;3.53;1.75;;;;;;;21.17;55.26;100996.66;5087546;28;20047;-56
2022/05/06 09:42:59;;;;;;;7.00;3.00;;;;;;;21.14;55.87;100997.06;5085876;28;20059;-55
2022/05/06 09:45:33;;;;;;;2.97;2.25;;;;;;;21.17;56.03;100998.50;5084776;28;20044;-50
2022/05/06 09:48:03;;;;;;;4.63;2.95;;;;;;;21.18;55.98;100994.84;5080228;28;20028;-54
2022/05/06 09:50:37;;;;;;;4.05;3.05;;;;;;;21.18;56.11;100997.50;5087955;28;20489;-49
2022/05/06 09:53:04;;;;;;;3.45;2.25;;;;;;;21.20;56.24;100995.44;5084305;28;20040;-48
2022/05/06 09:55:30;;;;;;;2.40;2.20;;;;;;;21.19;55.88;100989.34;5085826;28;20042;-52
2022/05/06 09:57:59;;;;;;;2.30;2.15;;;;;;;21.20;55.80;100990.16;5083451;28;20028;-49
2022/05/06 10:00:25;;;;;;;6.45;2.38;;;;;;;21.22;55.53;100988.16;5083327;28;20060;-54
2022/05/06 10:02:51;;;;;;;3.50;1.95;;;;;;;21.23;55.79;100994.28;5084319;28;20168;-50
2022/05/06 10:05:16;;;;;;;3.08;2.03;;;;;;;21.20;55.59;100993.63;5088342;28;20111;-46
2022/05/06 10:07:43;;;;;;;2.78;2.45;;;;;;;21.22;55.73;100987.34;5082707;28;20100;-54
2022/05/06 10:10:30;;;;;;;2.03;1.83;;;;;;;21.18;55.89;100978.94;5085552;28;20538;-45
2022/05/06 10:13:03;;;;;;;2.65;1.45;;;;;;;21.20;55.36;100988.31;5085565;28;20186;-50
2022/05/06 10:15:30;;;;;;;2.38;1.80;;;;;;;21.20;55.51;100984.84;5083193;28;20762;-45
2022/05/06 10:18:01;;;;;;;2.00;1.80;;;;;;;21.20;55.02;100984.84;5086513;28;20040;-55
2022/05/06 10:20:36;;;;;;;5.22;2.05;;;;;;;21.17;55.46;100985.25;5086891;28;20095;-42
2022/05/06 10:23:11;;;;;;;3.65;1.60;;;;;;;21.15;55.60;100987.28;5082298;28;20031;-50
2022/05/06 10:25:41;;;;;;;2.20;1.40;;;;;;;21.15;55.09;100984.63;5085556;28;20054;-45
2022/05/06 10:34:07;;;;;;;3.90;1.45;;;;;;;21.14;55.34;100993.59;5077445;28;20038;-48
2022/05/06 10:36:39;;;;;;;1.90;0.88;;;;;;;21.14;55.42;100991.78;5086156;28;20496;-52
2022/05/06 10:39:27;;;;;;;1.45;0.95;;;;;;;21.14;55.58;100988.31;5085652;28;20036;-51
2022/05/06 10:42:09;;;;;;;1.63;1.27;;;;;;;21.12;55.57;100988.50;5082483;28;20123;-48
2022/05/06 10:44:48;;;;;;;1.98;1.58;;;;;;;21.13;55.68;100984.03;5085053;28;20040;-46
2022/05/06 10:47:14;;;;;;;1.48;0.80;;;;;;;21.15;55.51;100988.09;5086522;28;20036;-54
2022/05/06 10:49:39;;;;;;;1.92;1.38;;;;;;;21.15;55.55;100987.28;5085692;28;20040;-48
2022/05/06 10:52:13;;;;;;;1.90;1.08;;;;;;;21.14;55.89;100983.00;5085239;28;20086;-49
2022/05/06 10:54:42;;;;;;;1.98;0.98;;;;;;;21.15;56.10;100987.28;5086416;28;20552;-51
2022/05/06 10:57:08;;;;;;;1.48;1.17;;;;;;;21.14;55.77;100991.78;5082316;28;20031;-53
2022/05/06 10:59:53;;;;;;;1.48;1.23;;;;;;;21.11;56.31;100992.16;5086424;28;20027;-49
2022/05/06 11:02:27;;;;;;;1.55;1.40;;;;;;;21.11;56.40;100991.34;5083983;28;20032;-46
2022/05/06 11:04:54;;;;;;;1.10;0.75;;;;;;;21.13;56.00;100981.38;5087446;28;20834;-52
2022/05/06 11:07:20;;;;;;;2.10;1.20;;;;;;;21.12;56.16;100985.84;5083679;28;20070;-49
2022/05/06 11:09:47;;;;;;;2.30;1.30;;;;;;;21.12;56.57;100993.00;5083646;28;20434;-48
2022/05/06 11:12:34;;;;;;;0.90;0.80;;;;;;;21.08;56.39;100976.69;5086146;28;20067;-46
2022/05/06 11:15:04;;;;;;;1.33;0.80;;;;;;;21.09;56.35;100983.59;5081407;28;20038;-49
2022/05/06 11:17:34;;;;;;;1.52;1.08;;;;;;;21.09;55.97;100988.91;5085421;28;20043;-57
2022/05/06 11:20:00;;;;;;;3.72;1.20;;;;;;;21.07;55.92;100988.28;5083409;28;20078;-48
2022/05/06 11:22:26;;;;;;;1.48;0.93;;;;;;;21.07;55.47;100984.81;5084652;28;20237;-51
2022/05/06 11:24:55;;;;;;;3.40;1.50;;;;;;;21.06;55.47;100977.88;5082311;28;20036;-49
2022/05/06 11:27:21;;;;;;;1.50;0.90;;;;;;;21.06;55.63;100977.88;5084211;28;20039;-43
2022/05/06 11:29:57;;;;;;;1.38;0.90;;;;;;;21.04;55.60;100974.63;5080296;28;20024;-51
2022/05/06 11:32:27;;;;;;;2.85;1.10;;;;;;;21.04;55.46;100975.44;5084225;28;20098;-50
2022/05/06 11:35:03;;;;;;;1.35;0.95;;;;;;;21.01;55.58;100978.50;5083374;28;20097;-52
2022/05/06 11:37:32;;;;;;;1.45;0.82;;;;;;;21.03;55.49;100978.28;5081159;28;20123;-45
2022/05/06 11:42:41;;;;;;;1.17;1.00;;;;;;;21.03;55.35;100975.63;5082845;28;20400;-52
2022/05/06 11:48:03;;;;;;;1.35;1.10;;;;;;;21.02;54.63;100981.94;5083698;28;20074;-50
2022/05/06 11:50:29;;;;;;;1.85;0.90;;;;;;;21.05;54.70;100982.38;5082072;28;20055;-52
2022/05/06 11:52:56;;;;;;;2.33;0.80;;;;;;;21.06;54.91;100984.00;5085116;28;20062;-45
2022/05/06 11:55:22;;;;;;;2.10;0.70;;;;;;;21.09;55.42;100982.78;5066399;28;20039;-45
2022/05/06 11:57:49;;;;;;;2.13;0.90;;;;;;;21.08;55.18;100983.81;5082391;28;20410;-47
2022/05/06 12:00:15;;;;;;;2.35;0.93;;;;;;;21.08;55.34;100986.47;5079025;28;20195;-52
2022/05/06 12:02:51;;;;;;;2.63;1.00;;;;;;;21.07;56.10;100995.41;5084504;28;20384;-52
2022/05/06 12:05:17;;;;;;;2.60;0.80;;;;;;;21.10;56.43;100990.53;5085184;28;20035;-49
2022/05/06 12:07:47;;;;;;;3.75;1.20;;;;;;;21.11;56.45;100986.06;5066512;28;20095;-49